createdAt,value
2023-01-20T00:00:21.383Z,41.00
2023-01-20T00:01:21.290Z,42.10
2023-01-20T00:02:21.452Z,40.30
2023-01-20T00:03:21.278Z,38.10
2023-01-20T00:04:21.246Z,39.30
2023-01-20T00:05:21.231Z,38.60
2023-01-20T00:06:21.239Z,39.90
2023-01-20T00:07:21.233Z,38.90
2023-01-20T00:08:21.195Z,39.20
2023-01-20T00:09:21.188Z,38.80
2023-01-20T00:10:21.168Z,40.40
2023-01-20T00:11:21.157Z,39.40
2023-01-20T00:12:21.155Z,38.10
2023-01-20T00:13:21.124Z,38.80
2023-01-20T00:14:21.117Z,37.30
2023-01-20T00:15:21.110Z,40.50
2023-01-20T00:16:21.138Z,40.70
2023-01-20T00:17:21.090Z,43.10
2023-01-20T00:18:21.091Z,41.70
2023-01-20T00:19:21.068Z,44.90
2023-01-20T00:20:21.043Z,44.30
2023-01-20T00:21:21.039Z,44.20
2023-01-20T00:22:21.042Z,44.40
2023-01-20T00:23:21.009Z,41.60
2023-01-20T00:24:20.997Z,39.70
2023-01-20T00:25:20.977Z,39.90
2023-01-20T00:26:20.981Z,39.00
2023-01-20T00:27:20.972Z,39.10
2023-01-20T00:28:20.941Z,37.80
2023-01-20T00:29:20.928Z,38.60
2023-01-20T00:30:20.934Z,38.80
2023-01-20T00:31:20.960Z,36.70
2023-01-20T00:32:20.901Z,36.50
2023-01-20T00:33:20.885Z,37.70
2023-01-20T00:34:20.881Z,39.30
2023-01-20T00:35:20.852Z,39.10
2023-01-20T00:36:20.854Z,38.90
2023-01-20T00:37:20.853Z,39.50
2023-01-20T00:38:20.814Z,38.60
2023-01-20T00:39:20.807Z,39.40
2023-01-20T00:40:20.785Z,38.00
2023-01-20T00:41:20.778Z,40.90
2023-01-20T00:42:20.774Z,39.10
2023-01-20T00:43:20.752Z,39.10
2023-01-20T00:44:20.735Z,40.30
2023-01-20T00:45:20.730Z,37.90
2023-01-20T00:46:20.711Z,35.40
2023-01-20T00:47:20.727Z,36.20
2023-01-20T00:48:20.705Z,35.20
2023-01-20T00:49:20.675Z,35.80
2023-01-20T00:50:20.703Z,37.10
2023-01-20T00:51:20.652Z,35.30
2023-01-20T00:52:20.655Z,35.80
2023-01-20T00:53:20.624Z,35.10
2023-01-20T00:54:20.611Z,35.30
2023-01-20T00:55:20.598Z,32.60
2023-01-20T00:56:20.587Z,34.50
2023-01-20T00:57:20.574Z,34.00
2023-01-20T00:58:20.579Z,34.00
2023-01-20T00:59:20.556Z,34.30
2023-01-20T01:00:20.558Z,34.00
2023-01-20T01:01:20.622Z,33.30
2023-01-20T01:02:20.546Z,34.60
2023-01-20T01:03:20.513Z,32.90
2023-01-20T01:04:20.485Z,34.00
2023-01-20T01:05:20.479Z,34.20
2023-01-20T01:06:20.482Z,33.20
2023-01-20T01:07:20.451Z,33.50
2023-01-20T01:08:20.452Z,33.50
2023-01-20T01:09:20.423Z,33.10
2023-01-20T01:10:20.409Z,32.20
2023-01-20T01:11:20.398Z,33.00
2023-01-20T01:12:20.385Z,33.70
2023-01-20T01:13:20.384Z,34.20
2023-01-20T01:14:20.358Z,34.90
2023-01-20T01:15:20.347Z,35.60
2023-01-20T01:16:20.383Z,34.60
2023-01-20T01:17:20.320Z,33.80
2023-01-20T01:18:20.320Z,35.40
2023-01-20T01:19:20.295Z,35.70
2023-01-20T01:20:20.278Z,37.00
2023-01-20T01:21:20.268Z,35.70
2023-01-20T01:22:20.274Z,35.70
2023-01-20T01:23:20.267Z,36.60
2023-01-20T01:24:20.236Z,36.10
2023-01-20T01:25:20.226Z,36.40
2023-01-20T01:26:20.208Z,36.20
2023-01-20T01:27:20.192Z,36.80
2023-01-20T01:28:20.209Z,36.00
2023-01-20T01:29:20.168Z,36.50
2023-01-20T01:30:20.242Z,36.60
2023-01-20T01:31:20.230Z,37.50
2023-01-20T01:32:20.127Z,38.20
2023-01-20T01:33:20.135Z,37.10
2023-01-20T01:34:20.102Z,38.00
2023-01-20T01:35:20.099Z,37.00
2023-01-20T01:36:20.083Z,36.40
2023-01-20T01:37:20.073Z,36.70
2023-01-20T01:38:20.087Z,37.60
2023-01-20T01:39:20.043Z,36.90
2023-01-20T01:40:20.032Z,36.00
2023-01-20T01:41:20.017Z,38.00
2023-01-20T01:42:20.012Z,37.00
2023-01-20T01:43:20.015Z,36.20
2023-01-20T01:44:19.976Z,36.70
2023-01-20T01:45:19.967Z,37.40
2023-01-20T01:46:19.959Z,36.80
2023-01-20T01:47:19.942Z,36.30
2023-01-20T01:48:19.945Z,37.80
2023-01-20T01:49:19.922Z,37.70
2023-01-20T01:50:19.908Z,36.30
2023-01-20T01:51:19.931Z,36.00
2023-01-20T01:52:19.878Z,36.10
2023-01-20T01:53:19.888Z,36.90
2023-01-20T01:54:19.876Z,37.60
2023-01-20T01:55:19.855Z,38.10
2023-01-20T01:56:19.833Z,38.10
2023-01-20T01:57:19.824Z,37.50
2023-01-20T01:58:19.820Z,39.60
2023-01-20T01:59:19.793Z,36.80
2023-01-20T02:00:19.785Z,38.80
2023-01-20T02:01:19.901Z,39.60
2023-01-20T02:02:22.709Z,38.90
2023-01-20T02:03:19.755Z,39.40
2023-01-20T02:04:19.736Z,38.20
2023-01-20T02:05:19.717Z,39.40
2023-01-20T02:06:19.707Z,38.10
2023-01-20T02:07:19.695Z,38.10
2023-01-20T02:08:19.694Z,38.20
2023-01-20T02:09:19.673Z,39.00
2023-01-20T02:10:19.681Z,36.80
2023-01-20T02:11:19.648Z,37.40
2023-01-20T02:12:19.632Z,36.50
2023-01-20T02:13:19.635Z,36.20
2023-01-20T02:14:19.605Z,36.60
2023-01-20T02:15:19.593Z,35.10
2023-01-20T02:16:19.631Z,37.50
2023-01-20T02:17:19.581Z,36.40
2023-01-20T02:18:19.573Z,35.80
2023-01-20T02:19:19.544Z,34.80
2023-01-20T02:20:19.545Z,35.20
2023-01-20T02:21:19.518Z,35.30
2023-01-20T02:22:19.506Z,35.10
2023-01-20T02:23:19.511Z,34.70
2023-01-20T02:24:19.480Z,34.30
2023-01-20T02:25:19.475Z,34.80
2023-01-20T02:26:19.471Z,34.50
2023-01-20T02:27:19.450Z,35.00
2023-01-20T02:28:19.447Z,34.60
2023-01-20T02:29:19.422Z,35.10
2023-01-20T02:30:19.428Z,33.80
2023-01-20T02:31:19.453Z,33.80
2023-01-20T02:32:19.379Z,33.40
2023-01-20T02:33:19.385Z,34.70
2023-01-20T02:34:19.353Z,33.60
2023-01-20T02:35:19.346Z,34.10
2023-01-20T02:36:19.329Z,34.40
2023-01-20T02:37:19.318Z,34.30
2023-01-20T02:38:19.330Z,33.30
2023-01-20T02:39:27.273Z,33.00
2023-01-20T02:40:20.287Z,34.20
2023-01-20T02:41:19.276Z,31.70
2023-01-20T02:42:19.298Z,32.20
2023-01-20T02:43:19.260Z,31.70
2023-01-20T02:44:19.234Z,32.60
2023-01-20T02:45:19.220Z,32.80
2023-01-20T02:46:19.206Z,32.50
2023-01-20T02:47:19.197Z,33.40
2023-01-20T02:48:19.197Z,34.20
2023-01-20T02:49:19.167Z,34.00
2023-01-20T02:50:19.153Z,33.50
2023-01-20T02:51:19.143Z,33.90
2023-01-20T02:52:19.135Z,33.30
2023-01-20T02:53:19.130Z,33.50
2023-01-20T02:54:19.108Z,33.50
2023-01-20T02:55:19.093Z,34.40
2023-01-20T02:56:19.079Z,32.50
2023-01-20T02:57:19.074Z,33.50
2023-01-20T02:58:19.092Z,33.30
2023-01-20T02:59:19.053Z,33.90
2023-01-20T03:00:19.035Z,34.10
2023-01-20T03:01:19.079Z,33.10
2023-01-20T03:02:19.001Z,32.80
2023-01-20T03:03:19.004Z,32.40
2023-01-20T03:04:19.002Z,32.40
2023-01-20T03:05:18.965Z,33.00
2023-01-20T03:06:18.953Z,33.00
2023-01-20T03:07:18.943Z,32.60
2023-01-20T03:08:18.925Z,33.00
2023-01-20T03:09:18.931Z,31.60
2023-01-20T03:10:18.902Z,32.50
2023-01-20T03:11:18.894Z,32.00
2023-01-20T03:12:18.878Z,32.10
2023-01-20T03:13:18.868Z,32.70
2023-01-20T03:14:18.888Z,33.60
2023-01-20T03:15:18.845Z,32.60
2023-01-20T03:16:18.923Z,32.10
2023-01-20T03:17:18.813Z,33.10
2023-01-20T03:18:18.802Z,32.70
2023-01-20T03:19:20.390Z,32.90
2023-01-20T03:20:18.781Z,33.00
2023-01-20T03:21:18.769Z,31.60
2023-01-20T03:22:18.754Z,31.80
2023-01-20T03:23:18.739Z,32.70
2023-01-20T03:24:18.767Z,32.50
2023-01-20T03:25:18.725Z,32.20
2023-01-20T03:26:18.711Z,32.40
2023-01-20T03:27:18.688Z,31.00
2023-01-20T03:28:18.676Z,32.30
2023-01-20T03:29:18.685Z,31.80
2023-01-20T03:30:18.676Z,32.20
2023-01-20T03:31:18.768Z,33.10
2023-01-20T03:32:18.629Z,33.10
2023-01-20T03:33:18.615Z,32.20
2023-01-20T03:34:18.615Z,32.50
2023-01-20T03:35:18.590Z,31.60
2023-01-20T03:36:18.587Z,32.40
2023-01-20T03:37:18.568Z,32.80
2023-01-20T03:38:18.553Z,32.40
2023-01-20T03:39:18.550Z,33.80
2023-01-20T03:40:18.528Z,33.00
2023-01-20T03:41:18.514Z,32.90
2023-01-20T03:42:18.507Z,33.40
2023-01-20T03:43:18.494Z,32.60
2023-01-20T03:44:18.491Z,33.30
2023-01-20T03:45:18.471Z,33.40
2023-01-20T03:46:18.480Z,32.30
2023-01-20T03:47:18.446Z,31.00
2023-01-20T03:48:18.448Z,28.70
2023-01-20T03:49:18.457Z,29.30
2023-01-20T03:50:18.411Z,28.80
2023-01-20T03:51:18.395Z,30.00
2023-01-20T03:52:18.376Z,31.10
2023-01-20T03:53:18.371Z,30.80
2023-01-20T03:54:18.367Z,30.60
2023-01-20T03:55:18.362Z,29.60
2023-01-20T03:56:18.329Z,30.40
2023-01-20T03:57:18.329Z,29.70
2023-01-20T03:58:18.305Z,28.30
2023-01-20T03:59:18.315Z,27.50
2023-01-20T04:00:18.279Z,28.60
2023-01-20T04:01:19.201Z,28.30
2023-01-20T04:02:18.448Z,27.40
2023-01-20T04:03:18.260Z,27.40
2023-01-20T04:04:18.251Z,28.20
2023-01-20T04:05:18.218Z,27.80
2023-01-20T04:06:18.203Z,28.50
2023-01-20T04:07:18.206Z,28.10
2023-01-20T04:08:18.186Z,27.80
2023-01-20T04:09:18.192Z,28.80
2023-01-20T04:10:18.154Z,29.60
2023-01-20T04:11:18.139Z,30.20
2023-01-20T04:12:18.133Z,30.00
2023-01-20T04:13:18.119Z,29.90
2023-01-20T04:14:18.119Z,29.10
2023-01-20T04:15:18.182Z,28.20
2023-01-20T04:16:18.077Z,29.30
2023-01-20T04:17:18.067Z,28.30
2023-01-20T04:18:18.080Z,28.20
2023-01-20T04:19:18.065Z,28.10
2023-01-20T04:20:18.027Z,29.40
2023-01-20T04:21:18.016Z,28.60
2023-01-20T04:22:18.003Z,27.30
2023-01-20T04:23:17.987Z,27.40
2023-01-20T04:24:17.999Z,28.10
2023-01-20T04:25:17.959Z,27.70
2023-01-20T04:26:17.950Z,28.40
2023-01-20T04:27:17.937Z,28.50
2023-01-20T04:28:17.927Z,28.70
2023-01-20T04:29:17.913Z,28.80
2023-01-20T04:30:18.054Z,29.30
2023-01-20T04:31:29.480Z,29.20
2023-01-20T04:32:17.879Z,28.50
2023-01-20T04:33:17.868Z,29.20
2023-01-20T04:34:17.875Z,27.60
2023-01-20T04:35:17.859Z,29.30
2023-01-20T04:36:17.828Z,28.70
2023-01-20T04:37:17.809Z,28.00
2023-01-20T04:38:17.804Z,27.90
2023-01-20T04:39:17.793Z,28.40
2023-01-20T04:40:17.799Z,27.20
2023-01-20T04:41:17.772Z,26.80
2023-01-20T04:42:17.749Z,28.30
2023-01-20T04:43:17.741Z,27.80
2023-01-20T04:44:17.727Z,28.30
2023-01-20T04:45:17.912Z,26.40
2023-01-20T04:46:17.756Z,29.10
2023-01-20T04:47:17.694Z,29.20
2023-01-20T04:48:17.680Z,27.80
2023-01-20T04:49:17.675Z,28.40
2023-01-20T04:50:18.683Z,28.70
2023-01-20T04:51:17.639Z,29.60
2023-01-20T04:52:17.633Z,28.70
2023-01-20T04:53:17.616Z,30.00
2023-01-20T04:54:17.607Z,29.20
2023-01-20T04:55:17.810Z,30.50
2023-01-20T04:56:17.582Z,28.70
2023-01-20T04:57:17.566Z,28.80
2023-01-20T04:58:17.554Z,29.10
2023-01-20T04:59:17.541Z,30.70
2023-01-20T05:00:17.540Z,29.40
2023-01-20T05:01:17.606Z,30.10
2023-01-20T05:02:17.633Z,30.10
2023-01-20T05:03:17.486Z,30.90
2023-01-20T05:04:17.475Z,30.60
2023-01-20T05:05:17.874Z,30.40
2023-01-20T05:06:17.495Z,31.90
2023-01-20T05:07:17.439Z,31.60
2023-01-20T05:08:17.429Z,32.80
2023-01-20T05:09:17.412Z,31.60
2023-01-20T05:10:17.418Z,32.00
2023-01-20T05:11:17.389Z,32.80
2023-01-20T05:12:17.376Z,32.50
2023-01-20T05:13:17.362Z,33.00
2023-01-20T05:14:17.347Z,32.70
2023-01-20T05:15:17.574Z,34.00
2023-01-20T05:16:17.405Z,33.50
2023-01-20T05:17:17.308Z,33.10
2023-01-20T05:18:17.302Z,33.20
2023-01-20T05:19:17.288Z,32.70
2023-01-20T05:20:17.294Z,33.50
2023-01-20T05:21:17.261Z,32.10
2023-01-20T05:22:17.277Z,32.60
2023-01-20T05:23:17.235Z,33.20
2023-01-20T05:24:17.227Z,32.60
2023-01-20T05:25:17.338Z,32.10
2023-01-20T05:26:17.197Z,31.80
2023-01-20T05:27:17.215Z,32.90
2023-01-20T05:28:17.178Z,33.50
2023-01-20T05:29:17.171Z,33.10
2023-01-20T05:30:17.179Z,32.70
2023-01-20T05:31:17.272Z,33.10
2023-01-20T05:32:17.128Z,31.90
2023-01-20T05:33:17.129Z,31.30
2023-01-20T05:34:17.099Z,31.30
2023-01-20T05:35:17.437Z,30.80
2023-01-20T05:36:17.081Z,31.70
2023-01-20T05:37:17.067Z,32.50
2023-01-20T05:38:17.073Z,31.00
2023-01-20T05:39:17.053Z,32.90
2023-01-20T05:40:17.059Z,32.00
2023-01-20T05:41:17.011Z,33.30
2023-01-20T05:42:17.011Z,33.40
2023-01-20T05:43:16.989Z,32.70
2023-01-20T05:44:16.983Z,33.60
2023-01-20T05:45:17.484Z,34.70
2023-01-20T05:46:17.014Z,33.60
2023-01-20T05:47:16.936Z,33.30
2023-01-20T05:48:16.925Z,32.90
2023-01-20T05:49:16.917Z,31.90
2023-01-20T05:50:16.908Z,32.40
2023-01-20T05:51:16.903Z,32.30
2023-01-20T05:52:16.908Z,33.00
2023-01-20T05:53:16.864Z,33.40
2023-01-20T05:54:16.883Z,33.40
2023-01-20T05:55:17.065Z,32.60
2023-01-20T05:56:16.839Z,33.50
2023-01-20T05:57:16.811Z,33.50
2023-01-20T05:58:16.801Z,33.30
2023-01-20T05:59:16.868Z,31.90
2023-01-20T06:00:16.773Z,32.50
2023-01-20T06:01:16.799Z,32.30
2023-01-20T06:02:16.745Z,33.10
2023-01-20T06:03:16.741Z,31.90
2023-01-20T06:04:16.740Z,34.20
2023-01-20T06:05:17.118Z,32.70
2023-01-20T06:06:16.712Z,32.50
2023-01-20T06:07:16.700Z,33.80
2023-01-20T06:08:16.677Z,33.60
2023-01-20T06:09:16.664Z,33.30
2023-01-20T06:10:16.671Z,33.10
2023-01-20T06:11:16.648Z,33.40
2023-01-20T06:12:16.620Z,33.50
2023-01-20T06:13:16.613Z,34.20
2023-01-20T06:14:16.605Z,33.90
2023-01-20T06:15:16.925Z,34.40
2023-01-20T06:16:16.657Z,32.70
2023-01-20T06:17:16.573Z,32.70
2023-01-20T06:18:16.552Z,34.60
2023-01-20T06:19:16.540Z,33.30
2023-01-20T06:20:16.529Z,33.60
2023-01-20T06:21:16.525Z,32.00
2023-01-20T06:22:16.518Z,32.30
2023-01-20T06:23:16.495Z,31.90
2023-01-20T06:24:16.472Z,31.90
2023-01-20T06:25:16.860Z,31.10
2023-01-20T06:26:16.510Z,31.40
2023-01-20T06:27:16.445Z,31.20
2023-01-20T06:28:16.428Z,30.80
2023-01-20T06:29:16.411Z,31.70
2023-01-20T06:30:16.405Z,30.80
2023-01-20T06:31:16.512Z,32.00
2023-01-20T06:32:16.382Z,30.90
2023-01-20T06:33:16.363Z,31.10
2023-01-20T06:34:16.378Z,31.40
2023-01-20T06:35:16.808Z,32.20
2023-01-20T06:36:16.334Z,31.20
2023-01-20T06:37:16.308Z,37.50
2023-01-20T06:38:16.295Z,30.50
2023-01-20T06:39:16.285Z,31.00
2023-01-20T06:40:16.275Z,31.30
2023-01-20T06:41:16.286Z,32.00
2023-01-20T06:42:16.279Z,31.50
2023-01-20T06:43:16.242Z,30.90
2023-01-20T06:44:16.223Z,31.80
2023-01-20T06:45:16.586Z,32.10
2023-01-20T06:46:16.277Z,31.80
2023-01-20T06:47:16.187Z,33.50
2023-01-20T06:48:16.191Z,33.10
2023-01-20T06:49:16.158Z,33.80
2023-01-20T06:50:16.173Z,42.30
2023-01-20T06:51:16.157Z,46.60
2023-01-20T06:52:16.135Z,44.60
2023-01-20T06:53:16.128Z,36.70
2023-01-20T06:54:16.103Z,45.90
2023-01-20T06:55:16.573Z,34.10
2023-01-20T06:56:16.094Z,31.10
2023-01-20T06:57:16.059Z,43.30
2023-01-20T06:58:16.068Z,40.90
2023-01-20T06:59:16.035Z,32.40
2023-01-20T07:00:16.040Z,34.90
2023-01-20T07:01:16.163Z,37.80
2023-01-20T07:02:16.177Z,31.90
2023-01-20T07:03:15.986Z,30.10
2023-01-20T07:04:15.976Z,32.10
2023-01-20T07:05:16.256Z,31.90
2023-01-20T07:06:15.994Z,32.00
2023-01-20T07:07:15.938Z,31.50
2023-01-20T07:08:15.927Z,33.00
2023-01-20T07:09:15.914Z,32.50
2023-01-20T07:10:15.899Z,31.00
2023-01-20T07:11:15.897Z,32.00
2023-01-20T07:12:15.887Z,31.90
2023-01-20T07:13:15.857Z,31.80
2023-01-20T07:14:15.869Z,32.30
2023-01-20T07:15:16.186Z,31.10
2023-01-20T07:16:16.222Z,30.60
2023-01-20T07:17:15.807Z,31.90
2023-01-20T07:18:15.804Z,32.60
2023-01-20T07:19:15.781Z,30.90
2023-01-20T07:20:15.772Z,32.50
2023-01-20T07:21:15.775Z,31.50
2023-01-20T07:22:15.747Z,31.80
2023-01-20T07:23:15.729Z,32.00
2023-01-20T07:24:15.723Z,32.10
2023-01-20T07:25:15.986Z,31.70
2023-01-20T07:26:15.710Z,31.90
2023-01-20T07:27:15.678Z,30.90
2023-01-20T07:28:15.671Z,30.80
2023-01-20T07:29:17.858Z,30.60
2023-01-20T07:30:15.668Z,30.90
2023-01-20T07:31:15.684Z,30.60
2023-01-20T07:32:15.638Z,30.10
2023-01-20T07:33:15.611Z,30.90
2023-01-20T07:34:15.594Z,29.30
2023-01-20T07:35:15.868Z,29.70
2023-01-20T07:36:15.580Z,29.50
2023-01-20T07:37:15.568Z,30.90
2023-01-20T07:38:15.554Z,30.40
2023-01-20T07:39:15.545Z,29.60
2023-01-20T07:40:15.525Z,29.80
2023-01-20T07:41:15.506Z,30.90
2023-01-20T07:42:15.511Z,30.90
2023-01-20T07:43:15.490Z,31.60
2023-01-20T07:44:15.469Z,31.30
2023-01-20T07:45:15.742Z,32.20
2023-01-20T07:46:15.474Z,33.20
2023-01-20T07:47:15.454Z,31.90
2023-01-20T07:48:15.417Z,34.00
2023-01-20T07:49:15.412Z,35.90
2023-01-20T07:50:15.397Z,34.40
2023-01-20T07:51:15.384Z,34.60
2023-01-20T07:52:15.398Z,33.60
2023-01-20T07:53:15.358Z,35.10
2023-01-20T07:54:15.348Z,36.80
2023-01-20T07:55:15.726Z,35.30
2023-01-20T07:56:15.335Z,34.90
2023-01-20T07:57:15.329Z,36.00
2023-01-20T07:58:15.294Z,35.30
2023-01-20T07:59:15.281Z,35.30
2023-01-20T08:00:15.269Z,35.00
2023-01-20T08:01:15.414Z,34.00
2023-01-20T08:02:15.283Z,35.60
2023-01-20T08:03:15.236Z,34.70
2023-01-20T08:04:15.221Z,34.60
2023-01-20T08:05:15.563Z,34.10
2023-01-20T08:06:15.200Z,34.00
2023-01-20T08:07:15.195Z,34.30
2023-01-20T08:08:15.167Z,35.00
2023-01-20T08:09:15.154Z,31.80
2023-01-20T08:10:15.182Z,33.30
2023-01-20T08:11:15.130Z,33.10
2023-01-20T08:12:15.130Z,32.70
2023-01-20T08:13:15.107Z,33.10
2023-01-20T08:14:15.095Z,32.90
2023-01-20T08:15:15.363Z,32.10
2023-01-20T08:16:15.124Z,33.60
2023-01-20T08:17:15.109Z,33.30
2023-01-20T08:18:15.065Z,32.80
2023-01-20T08:19:15.028Z,33.00
2023-01-20T08:20:15.022Z,33.90
2023-01-20T08:21:15.002Z,32.70
2023-01-20T08:22:15.007Z,32.80
2023-01-20T08:23:14.989Z,33.00
2023-01-20T08:24:14.963Z,33.20
2023-01-20T08:25:15.179Z,33.20
2023-01-20T08:26:14.942Z,33.00
2023-01-20T08:27:14.938Z,33.90
2023-01-20T08:28:14.924Z,33.20
2023-01-20T08:29:14.904Z,33.40
2023-01-20T08:30:14.892Z,33.60
2023-01-20T08:31:15.105Z,33.20
2023-01-20T08:32:14.888Z,32.10
2023-01-20T08:33:14.860Z,33.00
2023-01-20T08:34:14.865Z,32.20
2023-01-20T08:35:15.062Z,32.10
2023-01-20T08:36:14.816Z,32.70
2023-01-20T08:37:14.824Z,32.10
2023-01-20T08:38:14.873Z,32.80
2023-01-20T08:39:14.816Z,32.80
2023-01-20T08:40:14.816Z,33.10
2023-01-20T08:41:14.755Z,32.20
2023-01-20T08:42:14.750Z,31.30
2023-01-20T08:43:14.731Z,32.50
2023-01-20T08:44:14.718Z,31.70
2023-01-20T08:45:15.091Z,31.80
2023-01-20T08:46:14.823Z,31.70
2023-01-20T08:47:14.698Z,30.60
2023-01-20T08:48:14.663Z,31.10
2023-01-20T08:49:14.647Z,31.70
2023-01-20T08:50:14.672Z,29.70
2023-01-20T08:51:14.679Z,29.50
2023-01-20T08:52:14.640Z,29.60
2023-01-20T08:53:14.600Z,29.60
2023-01-20T08:54:14.603Z,29.00
2023-01-20T08:55:14.861Z,29.50
2023-01-20T08:56:14.561Z,27.90
2023-01-20T08:57:14.546Z,29.40
2023-01-20T08:58:14.552Z,31.00
2023-01-20T08:59:14.532Z,30.90
2023-01-20T09:00:14.515Z,30.30
2023-01-20T09:01:14.544Z,29.80
2023-01-20T09:02:14.516Z,30.40
2023-01-20T09:03:14.485Z,29.70
2023-01-20T09:04:14.461Z,29.80
2023-01-20T09:05:14.798Z,31.40
2023-01-20T09:06:14.500Z,31.20
2023-01-20T09:07:14.437Z,30.20
2023-01-20T09:08:14.426Z,30.40
2023-01-20T09:09:14.406Z,30.80
2023-01-20T09:10:14.388Z,29.90
2023-01-20T09:11:14.414Z,30.20
2023-01-20T09:12:14.358Z,31.40
2023-01-20T09:13:14.370Z,31.30
2023-01-20T09:14:14.337Z,31.20
2023-01-20T09:15:14.587Z,31.10
2023-01-20T09:16:14.334Z,30.10
2023-01-20T09:17:14.294Z,30.80
2023-01-20T09:18:14.296Z,29.70
2023-01-20T09:19:14.275Z,31.70
2023-01-20T09:20:14.274Z,30.20
2023-01-20T09:21:14.274Z,30.10
2023-01-20T09:22:16.503Z,29.60
2023-01-20T09:23:14.244Z,30.50
2023-01-20T09:24:14.207Z,31.30
2023-01-20T09:25:14.618Z,31.30
2023-01-20T09:26:19.723Z,29.30
2023-01-20T09:27:14.171Z,31.60
2023-01-20T09:28:14.196Z,31.40
2023-01-20T09:29:14.156Z,31.00
2023-01-20T09:30:14.130Z,31.70
2023-01-20T09:31:14.288Z,33.40
2023-01-20T09:32:14.111Z,31.20
2023-01-20T09:33:14.122Z,32.80
2023-01-20T09:34:15.390Z,30.90
2023-01-20T09:35:14.558Z,30.60
2023-01-20T09:36:14.058Z,31.10
2023-01-20T09:37:14.043Z,30.60
2023-01-20T09:38:14.065Z,31.30
2023-01-20T09:39:14.017Z,30.30
2023-01-20T09:40:14.347Z,32.90
2023-01-20T09:41:13.994Z,30.60
2023-01-20T09:42:13.982Z,31.30
2023-01-20T09:43:13.979Z,30.40
2023-01-20T09:44:13.955Z,30.20
2023-01-20T09:45:14.419Z,30.40
2023-01-20T09:46:13.981Z,30.30
2023-01-20T09:47:13.928Z,29.70
2023-01-20T09:48:13.911Z,29.10
2023-01-20T09:49:13.897Z,29.90
2023-01-20T09:50:14.352Z,30.50
2023-01-20T09:51:13.867Z,31.40
2023-01-20T09:52:13.847Z,31.10
2023-01-20T09:53:13.852Z,31.70
2023-01-20T09:54:13.840Z,30.90
2023-01-20T09:55:13.821Z,33.40
2023-01-20T09:56:13.801Z,32.50
2023-01-20T09:57:13.784Z,28.70
2023-01-20T09:58:13.767Z,27.10
2023-01-20T09:59:13.773Z,27.90
2023-01-20T10:00:14.133Z,28.00
2023-01-20T10:01:13.781Z,28.60
2023-01-20T10:02:13.724Z,28.00
2023-01-20T10:03:13.712Z,28.20
2023-01-20T10:04:13.712Z,28.40
2023-01-20T10:05:13.769Z,29.00
2023-01-20T10:06:13.668Z,26.90
2023-01-20T10:07:13.660Z,27.50
2023-01-20T10:08:13.649Z,27.10
2023-01-20T10:09:13.652Z,28.60
2023-01-20T10:10:13.938Z,28.40
2023-01-20T10:11:13.672Z,30.10
2023-01-20T10:12:13.597Z,28.40
2023-01-20T10:13:13.587Z,27.80
2023-01-20T10:14:13.626Z,27.00
2023-01-20T10:15:13.561Z,27.30
2023-01-20T10:16:13.724Z,27.50
2023-01-20T10:17:13.541Z,27.00
2023-01-20T10:18:13.570Z,27.40
2023-01-20T10:19:13.522Z,28.20
2023-01-20T10:20:13.835Z,26.90
2023-01-20T10:21:13.483Z,26.90
2023-01-20T10:22:13.464Z,26.90
2023-01-20T10:23:13.456Z,27.20
2023-01-20T10:24:13.451Z,26.70
2023-01-20T10:25:13.439Z,27.40
2023-01-20T10:26:13.466Z,26.90
2023-01-20T10:27:13.405Z,25.90
2023-01-20T10:28:13.385Z,25.90
2023-01-20T10:29:13.393Z,26.70
2023-01-20T10:30:13.689Z,27.10
2023-01-20T10:31:13.493Z,27.30
2023-01-20T10:32:13.335Z,29.00
2023-01-20T10:33:13.327Z,32.60
2023-01-20T10:34:13.323Z,38.60
2023-01-20T10:35:13.705Z,32.50
2023-01-20T10:36:13.286Z,26.50
2023-01-20T10:37:13.274Z,25.30
2023-01-20T10:38:13.256Z,24.20
2023-01-20T10:39:13.269Z,24.40
2023-01-20T10:40:13.291Z,23.40
2023-01-20T10:41:15.593Z,22.40
2023-01-20T10:42:13.244Z,23.60
2023-01-20T10:43:13.215Z,24.30
2023-01-20T10:44:13.199Z,24.80
2023-01-20T10:45:13.789Z,25.90
2023-01-20T10:46:13.163Z,25.70
2023-01-20T10:47:13.735Z,22.80
2023-01-20T10:48:13.125Z,21.60
2023-01-20T10:49:13.143Z,21.50
2023-01-20T10:50:13.108Z,23.00
2023-01-20T10:51:13.091Z,23.40
2023-01-20T10:52:13.076Z,23.10
2023-01-20T10:53:13.674Z,22.40
2023-01-20T10:54:13.061Z,22.40
2023-01-20T10:55:13.396Z,22.90
2023-01-20T10:56:13.020Z,24.60
2023-01-20T10:57:13.014Z,23.60
2023-01-20T10:58:13.027Z,23.00
2023-01-20T10:59:13.011Z,24.60
2023-01-20T11:00:13.148Z,23.60
2023-01-20T11:01:12.962Z,23.30
2023-01-20T11:02:13.032Z,22.30
2023-01-20T11:03:12.976Z,22.60
2023-01-20T11:04:12.917Z,22.10
2023-01-20T11:05:12.921Z,22.80
2023-01-20T11:06:12.889Z,22.10
2023-01-20T11:07:12.882Z,23.40
2023-01-20T11:08:12.865Z,22.20
2023-01-20T11:09:12.852Z,23.10
2023-01-20T11:10:13.326Z,23.50
2023-01-20T11:11:12.828Z,23.60
2023-01-20T11:12:12.811Z,23.10
2023-01-20T11:13:12.799Z,23.70
2023-01-20T11:14:12.816Z,23.20
2023-01-20T11:15:12.792Z,23.70
2023-01-20T11:16:12.915Z,23.90
2023-01-20T11:17:12.751Z,23.10
2023-01-20T11:18:12.735Z,23.70
2023-01-20T11:19:12.721Z,22.50
2023-01-20T11:20:12.726Z,23.70
2023-01-20T11:21:12.695Z,22.80
2023-01-20T11:22:12.682Z,22.50
2023-01-20T11:23:12.676Z,23.80
2023-01-20T11:24:12.665Z,23.50
2023-01-20T11:25:12.671Z,23.00
2023-01-20T11:26:12.714Z,22.90
2023-01-20T11:27:12.619Z,23.10
2023-01-20T11:28:12.608Z,22.90
2023-01-20T11:29:12.602Z,23.30
2023-01-20T11:30:12.675Z,23.90
2023-01-20T11:31:12.689Z,23.60
2023-01-20T11:32:12.557Z,23.60
2023-01-20T11:33:12.568Z,25.30
2023-01-20T11:34:12.550Z,25.20
2023-01-20T11:35:12.776Z,24.60
2023-01-20T11:36:12.506Z,26.40
2023-01-20T11:37:12.498Z,28.00
2023-01-20T11:38:12.477Z,27.30
2023-01-20T11:39:12.469Z,27.40
2023-01-20T11:40:12.573Z,27.20
2023-01-20T11:41:12.440Z,25.70
2023-01-20T11:42:12.434Z,26.40
2023-01-20T11:43:12.411Z,25.60
2023-01-20T11:44:12.397Z,26.30
2023-01-20T11:45:21.177Z,26.60
2023-01-20T11:46:12.593Z,26.30
2023-01-20T11:47:12.363Z,26.80
2023-01-20T11:48:14.078Z,25.90
2023-01-20T11:49:12.347Z,25.30
2023-01-20T11:50:12.777Z,25.40
2023-01-20T11:51:12.314Z,25.40
2023-01-20T11:52:12.293Z,25.50
2023-01-20T11:53:12.280Z,25.10
2023-01-20T11:54:12.266Z,25.70
2023-01-20T11:55:12.271Z,24.80
2023-01-20T11:56:12.241Z,23.40
2023-01-20T11:57:12.232Z,24.20
2023-01-20T11:58:12.219Z,24.60
2023-01-20T11:59:12.200Z,24.10
2023-01-20T12:00:12.224Z,24.50
2023-01-20T12:01:12.179Z,24.10
2023-01-20T12:02:12.254Z,23.70
2023-01-20T12:03:12.154Z,22.90
2023-01-20T12:04:12.156Z,22.50
2023-01-20T12:05:12.144Z,22.90
2023-01-20T12:06:12.112Z,22.00
2023-01-20T12:07:12.102Z,22.50
2023-01-20T12:08:12.088Z,23.60
2023-01-20T12:09:12.079Z,22.70
2023-01-20T12:10:12.073Z,23.00
2023-01-20T12:11:12.043Z,22.70
2023-01-20T12:12:12.031Z,23.10
2023-01-20T12:13:12.019Z,22.50
2023-01-20T12:14:12.005Z,22.60
2023-01-20T12:15:11.994Z,22.20
2023-01-20T12:16:12.005Z,21.50
2023-01-20T12:17:11.966Z,22.50
2023-01-20T12:18:11.975Z,21.90
2023-01-20T12:19:11.948Z,22.70
2023-01-20T12:20:11.945Z,22.10
2023-01-20T12:21:11.950Z,22.10
2023-01-20T12:22:11.906Z,21.00
2023-01-20T12:23:11.886Z,20.50
2023-01-20T12:24:11.897Z,21.30
2023-01-20T12:25:11.867Z,21.30
2023-01-20T12:26:11.860Z,21.50
2023-01-20T12:27:11.833Z,19.90
2023-01-20T12:28:11.820Z,19.90
2023-01-20T12:29:11.809Z,20.70
2023-01-20T12:30:11.794Z,20.70
2023-01-20T12:31:11.828Z,21.40
2023-01-20T12:32:11.780Z,20.90
2023-01-20T12:33:11.758Z,20.60
2023-01-20T12:34:11.759Z,21.50
2023-01-20T12:35:11.730Z,20.70
2023-01-20T12:36:11.733Z,20.80
2023-01-20T12:37:11.708Z,20.20
2023-01-20T12:38:11.692Z,20.40
2023-01-20T12:39:11.682Z,20.00
2023-01-20T12:40:11.666Z,20.30
2023-01-20T12:41:11.668Z,20.50
2023-01-20T12:42:11.640Z,19.60
2023-01-20T12:43:11.626Z,19.40
2023-01-20T12:44:11.612Z,19.40
2023-01-20T12:45:11.604Z,19.30
2023-01-20T12:46:11.751Z,19.50
2023-01-20T12:47:11.577Z,18.90
2023-01-20T12:48:11.569Z,20.40
2023-01-20T12:49:11.563Z,19.90
2023-01-20T12:50:11.556Z,20.10
2023-01-20T12:51:11.545Z,20.20
2023-01-20T12:52:11.513Z,20.80